EGNR/CEG METAR and TAF weather

Enter ICAO airport designator
Station Type Date Time Source
EGNR METAR 2019/12/11 15:20 UTC NOAA

EGNR 111520Z 23005KT 9999 VCSH SCT020 06/03 Q0999


Station Type Date Time Source
EGNR Decoded METAR 2019/12/11 15:20 UTC NOAA

Hawarden, United Kingdom (EGNR) 53-10N 002-59W 0M
Dec 11, 2019 - 10:20 AM EST / 2019.12.11 1520 UTC
Wind: from the SW (230 degrees) at 6 MPH (5 KT):0
Visibility: greater than 7 mile(s):0
Sky conditions: partly cloudy
Weather: showers in the vicinity
Temperature: 42 F (6 C)
Dew Point: 37 F (3 C)
Relative Humidity: 81%
Pressure (altimeter): 29.50 in. Hg (0999 hPa)
ob: EGNR 111520Z 23005KT 9999 VCSH SCT020 06/03 Q0999
cycle: 15

Station Type Date Time Source
EGNR TAF 2016/01/23 12:00 UTC NOAA

TAF EGNR 231059Z 2312/2319 15009KT 9999 FEW020
BECMG 2316/2319 BKN014
TEMPO 2317/2319 6000 RA BKN008

Example: see airport list